Stairtown, Texas
Current Conditions -  °F | °C
As of 7:55 PM on Saturday 25 Oct 2014 (Local Time) from KHYI Reporting Station
Clear Clear  
Wind Chill: 73°   Ceiling: Unl
Heat Index: 73°   Visibility: 10mi
Dew Point: 54°   Wind: 6mph
Humidity: 50%   Direction: 140°SE
Pressure: 30.09"   Gusts: NA
Location:  29.6952°N, 97.6509°W
Report Text: KHYI 260055Z 14005KT 10SM CLR 23/12 A3009 RMK AO1
Loading
Personal Weather Stations






























Interactive Weather Map
Tropical Storm Tracking
New forecast layout! Learn more

10-Day Weather Forecast

Advertisements
Track Severe Weather on mobile